TimeHST,TemperatureF,Dew PointF,Humidity,Sea Level PressureIn,VisibilityMPH,Wind Direction,Wind SpeedMPH,Gust SpeedMPH,PrecipitationIn,Events,Conditions,WindDirDegrees,DateUTC
12:56 AM,72.9,72.0,97,30.05,7.0,NW,6.9,-,N/A,,Overcast,320,2012-12-05 10:56:00
1:56 AM,71.6,71.6,100,30.12,4.0,Calm,Calm,-,N/A,,Mostly Cloudy,0,2012-12-05 11:56:00
2:03 AM,71.6,71.6,100,30.12,4.0,Calm,Calm,-,N/A,,Mostly Cloudy,0,2012-12-05 12:03:00
2:15 AM,71.6,71.6,100,30.11,6.0,SE,3.5,-,N/A,,Mostly Cloudy,140,2012-12-05 12:15:00
2:56 AM,70.9,70.0,97,30.04,10.0,East,3.5,-,N/A,,Mostly Cloudy,90,2012-12-05 12:56:00
4:56 AM,69.8,66.2,88,30.11,10.0,East,4.6,-,N/A,,Scattered Clouds,80,2012-12-05 14:56:00
5:34 AM,69.8,66.2,88,30.11,10.0,East,5.8,-,N/A,,Mostly Cloudy,80,2012-12-05 15:34:00
5:56 AM,68.9,68.0,97,30.07,10.0,ENE,4.6,-,N/A,,Scattered Clouds,70,2012-12-05 15:56:00
6:07 AM,69.8,68.0,94,30.12,10.0,NE,5.8,-,N/A,,Mostly Cloudy,50,2012-12-05 16:07:00
6:29 AM,71.6,69.8,94,30.13,10.0,ENE,4.6,-,N/A,,Mostly Cloudy,60,2012-12-05 16:29:00
6:56 AM,70.0,68.9,96,30.09,10.0,ENE,4.6,-,N/A,,Scattered Clouds,70,2012-12-05 16:56:00
7:56 AM,70.9,68.0,91,30.11,10.0,East,4.6,-,N/A,,Clear,80,2012-12-05 17:56:00
8:56 AM,72.9,68.9,87,30.10,10.0,East,4.6,-,N/A,,Clear,90,2012-12-05 18:56:00
9:56 AM,73.9,68.9,84,30.11,10.0,ESE,4.6,-,N/A,,Clear,120,2012-12-05 19:56:00
10:56 AM,77.0,66.9,71,30.08,10.0,Variable,5.8,-,N/A,,Clear,0,2012-12-05 20:56:00
11:19 AM,78.8,66.2,65,30.15,10.0,West,5.8,-,N/A,,Mostly Cloudy,260,2012-12-05 21:19:00
11:56 AM,79.0,68.0,69,30.05,10.0,NW,6.9,-,N/A,,Mostly Cloudy,320,2012-12-05 21:56:00
12:04 PM,78.8,68.0,69,30.12,10.0,WNW,6.9,-,N/A,,Scattered Clouds,300,2012-12-05 22:04:00
12:56 PM,77.0,65.8,68,30.02,10.0,NNW,4.6,-,N/A,,Mostly Cloudy,340,2012-12-05 22:56:00
1:56 PM,77.0,68.0,74,30.07,10.0,Variable,4.6,-,N/A,,Mostly Cloudy,0,2012-12-05 23:56:00
2:22 PM,77.0,68.0,74,30.06,10.0,WSW,8.1,-,N/A,,Scattered Clouds,240,2012-12-06 00:22:00
2:45 PM,75.2,66.2,73,30.06,10.0,WSW,5.8,-,N/A,,Mostly Cloudy,250,2012-12-06 00:45:00
2:56 PM,74.8,66.9,76,30.01,10.0,West,5.8,-,N/A,,Mostly Cloudy,270,2012-12-06 00:56:00
3:56 PM,73.9,68.0,82,30.01,10.0,SSW,4.6,-,N/A,,Mostly Cloudy,200,2012-12-06 01:56:00
4:15 PM,73.4,68.0,83,30.07,10.0,SSW,8.1,-,N/A,,Mostly Cloudy,210,2012-12-06 02:15:00
4:56 PM,73.4,69.8,88,30.08,10.0,West,6.9,-,N/A,,Mostly Cloudy,270,2012-12-06 02:56:00
5:15 PM,73.4,69.8,88,30.09,10.0,WNW,5.8,-,N/A,,Mostly Cloudy,290,2012-12-06 03:15:00
5:22 PM,73.4,69.8,88,30.09,10.0,WNW,5.8,-,0.00,Rain,Light Rain,290,2012-12-06 03:22:00
5:27 PM,73.4,69.8,88,30.09,10.0,NW,5.8,-,0.00,Rain,Light Rain,320,2012-12-06 03:27:00
5:29 PM,73.4,69.8,88,30.09,10.0,NNW,6.9,-,0.00,Rain,Light Rain,330,2012-12-06 03:29:00
5:44 PM,71.6,69.8,94,30.09,10.0,NW,4.6,-,0.00,,Mostly Cloudy,310,2012-12-06 03:44:00
5:56 PM,72.0,70.0,93,30.04,10.0,NW,4.6,-,0.00,,Scattered Clouds,310,2012-12-06 03:56:00
6:10 PM,71.6,69.8,94,30.09,9.0,Calm,Calm,-,N/A,,Mostly Cloudy,0,2012-12-06 04:10:00
6:21 PM,71.6,69.8,94,30.09,10.0,NNW,5.8,-,N/A,,Scattered Clouds,340,2012-12-06 04:21:00
6:56 PM,70.9,68.9,93,30.03,10.0,ENE,8.1,-,N/A,,Clear,70,2012-12-06 04:56:00
7:56 PM,70.9,68.9,93,30.04,10.0,South,6.9,-,N/A,,Clear,170,2012-12-06 05:56:00
8:56 PM,68.9,66.9,93,30.05,10.0,NE,4.6,-,N/A,,Clear,50,2012-12-06 06:56:00
9:56 PM,68.9,66.9,93,30.04,10.0,Calm,Calm,-,N/A,,Clear,0,2012-12-06 07:56:00
10:56 PM,66.9,64.9,93,30.03,10.0,NE,4.6,-,N/A,,Clear,50,2012-12-06 08:56:00
11:56 PM,68.0,65.8,93,30.01,10.0,NNW,5.8,-,N/A,,Partly Cloudy,340,2012-12-06 09:56:00